Time;durP1;ratioP1;P1;durP2;ratioP2;P2;SDS_P1;SDS_P2;PMS_P1;PMS_P2;Temp;Humidity;BMP_temperature;BMP_pressure;BME280_temperature;BME280_humidity;BME280_pressure;Samples;Min_cycle;Max_cycle;Signal;HPM_P1;HPM_P2
2023/11/23 00:01:05;;;;;;;7.28;4.75;;;0.60;99.90;;;;;;493985;241;28183;-72
2023/11/23 00:03:07;;;;;;;7.30;5.55;;;0.50;99.90;;;;;;494094;241;28065;-72
2023/11/23 00:05:08;;;;;;;7.40;5.20;;;0.50;99.90;;;;;;494002;241;27995;-73
2023/11/23 00:07:09;;;;;;;6.10;5.20;;;0.50;99.90;;;;;;494074;241;27470;-72
2023/11/23 00:09:10;;;;;;;6.50;5.80;;;0.50;99.90;;;;;;494086;241;27525;-72
2023/11/23 00:11:11;;;;;;;6.03;5.10;;;0.40;99.90;;;;;;494073;241;27521;-73
2023/11/23 00:13:13;;;;;;;6.85;5.00;;;0.40;99.90;;;;;;494091;241;27477;-72
2023/11/23 00:15:14;;;;;;;6.95;5.00;;;0.40;99.90;;;;;;494051;241;27514;-72
2023/11/23 00:17:15;;;;;;;6.93;4.93;;;0.30;99.90;;;;;;493991;241;27480;-71
2023/11/23 00:19:16;;;;;;;6.07;4.95;;;0.30;99.90;;;;;;494013;241;27533;-72
2023/11/23 00:21:18;;;;;;;10.50;5.43;;;0.30;99.90;;;;;;493996;241;27519;-73
2023/11/23 00:23:19;;;;;;;6.95;5.03;;;0.30;99.90;;;;;;494072;241;27557;-72
2023/11/23 00:25:20;;;;;;;7.43;6.05;;;0.30;99.90;;;;;;494086;241;27581;-72
2023/11/23 00:27:21;;;;;;;8.05;5.90;;;0.30;99.90;;;;;;494055;241;29009;-72
2023/11/23 00:29:23;;;;;;;8.55;5.60;;;0.30;99.90;;;;;;494010;241;27935;-71
2023/11/23 00:31:24;;;;;;;6.50;5.43;;;0.30;99.90;;;;;;494010;241;27992;-72
2023/11/23 00:33:25;;;;;;;7.78;5.65;;;0.20;99.90;;;;;;493991;241;27486;-71
2023/11/23 00:35:26;;;;;;;6.62;5.53;;;0.20;99.90;;;;;;493990;241;27589;-72
2023/11/23 00:37:28;;;;;;;7.05;4.72;;;0.20;99.90;;;;;;494098;241;27586;-71
2023/11/23 00:39:29;;;;;;;6.65;5.37;;;0.20;99.90;;;;;;494018;241;27468;-72
2023/11/23 00:41:30;;;;;;;9.40;5.32;;;0.20;99.90;;;;;;493989;241;27509;-73
2023/11/23 00:43:31;;;;;;;5.40;4.45;;;0.20;99.90;;;;;;493992;241;27459;-71
2023/11/23 00:45:33;;;;;;;13.02;5.85;;;0.20;99.90;;;;;;494007;241;27478;-72
2023/11/23 00:47:34;;;;;;;5.75;5.10;;;0.20;99.90;;;;;;494015;241;27855;-73
2023/11/23 00:49:35;;;;;;;5.10;4.18;;;0.20;99.90;;;;;;493956;241;27466;-71
2023/11/23 00:51:37;;;;;;;4.97;4.43;;;0.10;99.90;;;;;;493982;239;27549;-72
2023/11/23 00:53:38;;;;;;;5.97;4.80;;;0.10;99.90;;;;;;494036;241;28064;-71
2023/11/23 00:55:39;;;;;;;5.57;4.55;;;0.10;99.90;;;;;;494079;241;27932;-71
2023/11/23 00:57:40;;;;;;;5.87;4.57;;;0.10;99.90;;;;;;494082;241;27995;-72
2023/11/23 00:59:41;;;;;;;6.10;5.07;;;0.10;99.90;;;;;;494015;241;27918;-71
2023/11/23 01:01:44;;;;;;;5.85;4.62;;;0.10;99.90;;;;;;493993;241;27505;-72
2023/11/23 01:03:44;;;;;;;6.85;5.20;;;0.10;99.90;;;;;;493980;241;27462;-71
2023/11/23 01:05:45;;;;;;;10.63;7.87;;;0.10;99.90;;;;;;494073;241;27477;-71
2023/11/23 01:07:47;;;;;;;9.15;6.35;;;0.10;99.90;;;;;;494061;239;27636;-72
2023/11/23 01:09:48;;;;;;;8.25;5.18;;;0.10;99.90;;;;;;494013;241;27451;-71
2023/11/23 01:11:51;;;;;;;6.68;5.47;;;0.00;99.90;;;;;;493978;241;27510;-72
2023/11/23 01:13:50;;;;;;;7.15;5.45;;;0.00;99.90;;;;;;493871;241;27860;-75
2023/11/23 01:15:52;;;;;;;6.95;5.62;;;-0.10;99.90;;;;;;494085;241;27556;-72
2023/11/23 01:17:53;;;;;;;6.00;5.30;;;0.00;99.90;;;;;;494072;241;27540;-72
2023/11/23 01:19:54;;;;;;;6.20;5.05;;;0.00;99.90;;;;;;493990;241;28028;-71
2023/11/23 01:21:55;;;;;;;7.95;5.32;;;0.00;99.90;;;;;;494087;241;27982;-71
2023/11/23 01:23:57;;;;;;;6.25;5.07;;;0.00;99.90;;;;;;494043;241;28099;-73
2023/11/23 01:25:58;;;;;;;6.95;5.35;;;0.00;99.90;;;;;;494030;241;28043;-71
2023/11/23 01:27:59;;;;;;;7.47;4.95;;;0.00;99.90;;;;;;493989;241;27520;-72
2023/11/23 01:30:00;;;;;;;6.93;5.57;;;0.00;99.90;;;;;;494008;241;27551;-71
2023/11/23 01:32:02;;;;;;;6.93;5.32;;;0.00;99.90;;;;;;493997;241;27561;-73
2023/11/23 01:34:03;;;;;;;7.93;5.15;;;0.00;99.90;;;;;;494019;241;27527;-73
2023/11/23 01:36:04;;;;;;;7.95;4.97;;;-0.10;99.90;;;;;;494023;241;27462;-71
2023/11/23 01:38:05;;;;;;;10.07;5.65;;;0.00;99.90;;;;;;494003;241;27526;-72
2023/11/23 01:40:07;;;;;;;5.85;4.50;;;0.00;99.90;;;;;;494017;241;27598;-71
2023/11/23 01:42:08;;;;;;;6.32;4.90;;;-0.10;99.90;;;;;;494121;241;27584;-73
2023/11/23 01:44:11;;;;;;;5.60;5.03;;;-0.10;99.90;;;;;;494023;241;27576;-71
2023/11/23 01:46:10;;;;;;;4.95;4.35;;;-0.20;99.90;;;;;;493985;241;27938;-71
2023/11/23 01:48:12;;;;;;;6.00;5.22;;;-0.20;99.90;;;;;;494054;241;27992;-72
2023/11/23 01:50:13;;;;;;;7.40;5.45;;;-0.20;99.90;;;;;;493989;241;29225;-72
2023/11/23 01:52:14;;;;;;;7.07;5.30;;;-0.20;99.90;;;;;;494106;237;27617;-72
2023/11/23 01:54:15;;;;;;;11.70;4.80;;;-0.20;99.90;;;;;;494096;241;27535;-72
2023/11/23 01:56:17;;;;;;;6.68;5.70;;;-0.20;99.90;;;;;;494063;237;27601;-71
2023/11/23 01:58:18;;;;;;;7.07;5.37;;;-0.30;99.90;;;;;;493987;241;27518;-71
2023/11/23 02:00:19;;;;;;;6.15;4.85;;;-0.30;99.90;;;;;;494013;241;27539;-73
2023/11/23 02:02:20;;;;;;;7.03;5.12;;;-0.30;99.90;;;;;;494090;241;27463;-71
2023/11/23 02:04:22;;;;;;;6.93;5.22;;;-0.30;99.90;;;;;;494070;241;27495;-71
2023/11/23 02:06:23;;;;;;;7.53;5.07;;;-0.30;99.90;;;;;;493934;241;28814;-71
2023/11/23 02:08:24;;;;;;;5.68;4.80;;;-0.40;99.90;;;;;;494046;241;28046;-71
2023/11/23 02:10:25;;;;;;;9.52;6.70;;;-0.30;99.90;;;;;;494095;241;27513;-73
2023/11/23 02:12:27;;;;;;;7.93;5.70;;;-0.40;99.90;;;;;;494065;241;27510;-72
2023/11/23 02:14:31;;;;;;;7.20;5.90;;;-0.40;99.90;;;;;;494002;241;27608;-72
2023/11/23 02:16:29;;;;;;;6.25;4.95;;;-0.40;99.90;;;;;;493765;241;27501;-71
2023/11/23 02:18:30;;;;;;;7.75;4.97;;;-0.40;99.90;;;;;;494021;241;27461;-71
2023/11/23 02:20:32;;;;;;;6.10;4.85;;;-0.40;99.90;;;;;;494021;241;27509;-71
2023/11/23 02:22:33;;;;;;;7.00;5.80;;;-0.40;99.90;;;;;;494006;241;27540;-72
2023/11/23 02:24:34;;;;;;;8.90;5.47;;;-0.40;99.90;;;;;;493966;240;27981;-72
2023/11/23 02:26:35;;;;;;;6.90;5.70;;;-0.40;99.90;;;;;;494063;241;28004;-73
2023/11/23 02:28:37;;;;;;;8.48;5.82;;;-0.40;99.90;;;;;;494084;241;27989;-72
2023/11/23 02:30:38;;;;;;;6.82;5.45;;;-0.40;99.90;;;;;;494073;241;27651;-72
2023/11/23 02:32:39;;;;;;;7.00;5.30;;;-0.50;99.90;;;;;;494021;241;27471;-71
2023/11/23 02:34:40;;;;;;;10.27;5.53;;;-0.40;99.90;;;;;;494053;241;27585;-71
2023/11/23 02:36:42;;;;;;;6.72;5.57;;;-0.40;99.90;;;;;;493945;241;27498;-73
2023/11/23 02:38:43;;;;;;;7.90;5.80;;;-0.40;99.90;;;;;;493985;241;27466;-71
2023/11/23 02:40:44;;;;;;;5.65;4.82;;;-0.40;99.90;;;;;;493982;241;27657;-71
2023/11/23 02:42:45;;;;;;;5.60;4.85;;;-0.40;99.90;;;;;;493997;241;27472;-71
2023/11/23 02:44:47;;;;;;;7.68;5.50;;;-0.40;99.90;;;;;;494010;241;27968;-71
2023/11/23 02:46:48;;;;;;;6.03;5.43;;;-0.40;99.90;;;;;;493992;241;27994;-72
2023/11/23 02:48:49;;;;;;;8.27;5.60;;;-0.40;99.90;;;;;;493935;241;27938;-72
2023/11/23 02:50:51;;;;;;;6.72;5.75;;;-0.40;99.90;;;;;;493953;241;27614;-71
2023/11/23 02:52:55;;;;;;;8.90;5.82;;;-0.50;99.90;;;;;;494052;241;27528;-72
2023/11/23 02:54:53;;;;;;;8.05;5.60;;;-0.50;99.90;;;;;;493737;241;27449;-71
2023/11/23 02:56:54;;;;;;;6.70;5.43;;;-0.40;99.90;;;;;;493977;241;27598;-72
2023/11/23 02:58:55;;;;;;;6.20;4.82;;;-0.40;99.90;;;;;;493974;241;27548;-71
2023/11/23 03:00:57;;;;;;;6.53;4.90;;;-0.40;99.90;;;;;;493970;241;27518;-71
2023/11/23 03:02:58;;;;;;;8.70;5.82;;;-0.40;99.90;;;;;;494059;237;27524;-74
2023/11/23 03:05:00;;;;;;;8.25;4.93;;;-0.40;99.90;;;;;;493982;241;27929;-71
2023/11/23 03:07:00;;;;;;;10.60;6.35;;;-0.40;99.90;;;;;;493948;241;28048;-71
2023/11/23 03:09:02;;;;;;;7.70;5.43;;;-0.40;99.90;;;;;;493954;241;27500;-71
2023/11/23 03:11:04;;;;;;;10.23;5.80;;;-0.40;99.90;;;;;;494051;241;27478;-71
2023/11/23 03:13:04;;;;;;;7.95;5.43;;;-0.40;99.90;;;;;;493983;241;27622;-73
2023/11/23 03:15:05;;;;;;;6.30;5.32;;;-0.40;99.90;;;;;;494033;241;27466;-71
2023/11/23 03:17:07;;;;;;;6.60;5.47;;;-0.40;99.90;;;;;;493944;241;27513;-72
2023/11/23 03:19:08;;;;;;;16.52;5.55;;;-0.30;99.90;;;;;;493928;237;27514;-72
2023/11/23 03:21:09;;;;;;;9.07;5.28;;;-0.30;99.90;;;;;;494017;241;27569;-71
2023/11/23 03:23:10;;;;;;;9.35;6.18;;;-0.40;99.90;;;;;;494021;241;27984;-74
2023/11/23 03:25:12;;;;;;;8.35;6.40;;;-0.40;99.90;;;;;;493960;241;28950;-72
2023/11/23 03:27:13;;;;;;;6.68;5.25;;;-0.40;99.90;;;;;;493917;241;27977;-72
2023/11/23 03:29:14;;;;;;;6.00;5.20;;;-0.30;99.90;;;;;;493982;241;27523;-73
2023/11/23 03:31:15;;;;;;;7.57;5.80;;;-0.30;99.90;;;;;;494035;241;27628;-72
2023/11/23 03:33:17;;;;;;;8.55;5.82;;;-0.30;99.90;;;;;;493927;241;27509;-72
2023/11/23 03:35:18;;;;;;;8.07;4.90;;;-0.40;99.90;;;;;;493995;241;27533;-71
2023/11/23 03:37:19;;;;;;;7.62;5.62;;;-0.40;99.90;;;;;;494060;241;27504;-72
2023/11/23 03:39:21;;;;;;;9.38;6.22;;;-0.30;99.90;;;;;;494056;241;27517;-72
2023/11/23 03:41:22;;;;;;;7.72;5.93;;;-0.30;99.90;;;;;;494104;241;27515;-71
2023/11/23 03:43:23;;;;;;;8.98;5.60;;;-0.30;99.90;;;;;;494085;241;28056;-72
2023/11/23 03:45:24;;;;;;;6.22;5.45;;;-0.30;99.90;;;;;;493956;241;28787;-71
2023/11/23 03:47:26;;;;;;;7.10;6.22;;;-0.30;99.90;;;;;;494046;241;27948;-72
2023/11/23 03:49:27;;;;;;;7.25;6.43;;;-0.30;99.90;;;;;;494064;241;27512;-72
2023/11/23 03:51:28;;;;;;;9.82;6.10;;;-0.30;99.90;;;;;;494035;241;27474;-71
2023/11/23 03:53:29;;;;;;;6.85;5.85;;;-0.30;99.90;;;;;;494015;241;27505;-72
2023/11/23 03:55:31;;;;;;;7.75;5.68;;;-0.20;99.90;;;;;;494058;241;27991;-71
2023/11/23 03:57:32;;;;;;;7.75;6.10;;;-0.20;99.90;;;;;;493997;241;27621;-71
2023/11/23 03:59:33;;;;;;;9.07;6.00;;;-0.20;99.90;;;;;;493995;241;27524;-76
2023/11/23 04:01:34;;;;;;;8.68;6.32;;;-0.20;99.90;;;;;;493954;241;27473;-72
2023/11/23 04:03:36;;;;;;;7.40;5.78;;;-0.10;99.90;;;;;;493991;241;28043;-72
2023/11/23 04:05:37;;;;;;;7.22;5.37;;;-0.10;99.90;;;;;;493914;241;27985;-72
2023/11/23 04:07:38;;;;;;;8.43;6.60;;;-0.20;99.90;;;;;;494021;241;27951;-72
2023/11/23 04:09:39;;;;;;;7.97;5.80;;;-0.10;99.90;;;;;;493829;241;27510;-71
2023/11/23 04:11:41;;;;;;;7.05;5.28;;;-0.10;99.90;;;;;;493999;241;27536;-71
2023/11/23 04:13:42;;;;;;;7.97;5.65;;;-0.10;99.90;;;;;;494007;241;27470;-72
2023/11/23 04:15:45;;;;;;;11.88;6.50;;;0.00;99.90;;;;;;494103;241;27549;-74
2023/11/23 04:17:44;;;;;;;8.75;6.12;;;0.00;99.90;;;;;;493874;237;27475;-71
2023/11/23 04:19:46;;;;;;;8.93;5.55;;;0.10;99.90;;;;;;494006;241;27524;-71
2023/11/23 04:21:47;;;;;;;7.65;5.72;;;0.10;99.90;;;;;;493996;241;27500;-71
2023/11/23 04:23:48;;;;;;;7.37;5.47;;;0.20;99.90;;;;;;494013;241;27563;-72
2023/11/23 04:25:50;;;;;;;6.55;5.53;;;0.30;99.90;;;;;;494099;241;27981;-72
2023/11/23 04:27:51;;;;;;;7.47;5.55;;;0.40;99.90;;;;;;494079;241;27897;-72
2023/11/23 04:29:53;;;;;;;6.68;5.95;;;0.40;99.90;;;;;;494037;241;28052;-73
2023/11/23 04:31:53;;;;;;;12.05;5.72;;;0.40;99.90;;;;;;493908;241;27980;-73
2023/11/23 04:33:54;;;;;;;11.32;6.32;;;0.40;99.90;;;;;;493983;241;27482;-72
2023/11/23 04:35:56;;;;;;;8.60;6.78;;;0.50;99.90;;;;;;493981;241;27509;-72
2023/11/23 04:37:57;;;;;;;10.20;6.60;;;0.60;99.90;;;;;;493964;241;27500;-71
2023/11/23 04:39:58;;;;;;;8.20;5.45;;;0.60;99.90;;;;;;493961;241;27501;-72
2023/11/23 04:41:59;;;;;;;9.15;5.65;;;0.60;99.90;;;;;;493984;241;27504;-72
2023/11/23 04:44:01;;;;;;;7.55;5.05;;;0.60;99.90;;;;;;493960;241;27457;-72
2023/11/23 04:46:02;;;;;;;5.97;5.00;;;0.70;99.90;;;;;;493966;241;27572;-72
2023/11/23 04:48:03;;;;;;;6.75;5.10;;;0.70;99.90;;;;;;493980;241;27472;-72
2023/11/23 04:50:04;;;;;;;11.38;6.75;;;0.70;99.90;;;;;;494048;241;27869;-72
2023/11/23 04:52:06;;;;;;;7.95;6.28;;;0.80;99.90;;;;;;494095;241;27972;-72
2023/11/23 04:54:07;;;;;;;9.65;6.20;;;0.80;99.90;;;;;;494062;241;28140;-71
2023/11/23 04:56:08;;;;;;;8.30;6.60;;;0.80;99.90;;;;;;494066;239;28012;-72
2023/11/23 04:58:09;;;;;;;7.95;5.43;;;0.80;99.90;;;;;;494093;241;27508;-73
2023/11/23 05:00:11;;;;;;;7.95;5.82;;;0.90;99.90;;;;;;494101;241;27485;-72
2023/11/23 05:02:12;;;;;;;10.10;6.00;;;0.90;99.90;;;;;;494003;241;27503;-72
2023/11/23 05:04:13;;;;;;;7.93;6.28;;;0.90;99.90;;;;;;494004;241;27551;-71
2023/11/23 05:06:15;;;;;;;9.60;6.32;;;0.90;99.90;;;;;;493997;241;27501;-72
2023/11/23 05:08:16;;;;;;;12.10;7.12;;;0.90;99.90;;;;;;494070;241;27506;-74
2023/11/23 05:10:17;;;;;;;8.85;6.80;;;0.90;99.90;;;;;;493650;241;27640;-72
2023/11/23 05:12:18;;;;;;;8.02;5.93;;;1.00;99.90;;;;;;493334;241;27581;-72
2023/11/23 05:14:19;;;;;;;7.15;5.62;;;1.00;99.90;;;;;;493395;241;28068;-71
2023/11/23 05:16:21;;;;;;;12.35;6.25;;;1.00;99.90;;;;;;493469;241;27490;-71
2023/11/23 05:18:22;;;;;;;8.73;5.65;;;1.00;99.90;;;;;;493701;241;28118;-73
2023/11/23 05:20:23;;;;;;;7.90;6.12;;;1.10;99.90;;;;;;493991;241;27493;-72
2023/11/23 05:22:24;;;;;;;7.18;5.87;;;1.10;99.90;;;;;;494007;237;27588;-72
2023/11/23 05:24:26;;;;;;;8.43;6.60;;;1.10;99.90;;;;;;494017;241;27551;-73
2023/11/23 05:26:27;;;;;;;7.70;5.72;;;1.10;99.90;;;;;;494021;241;27609;-72
2023/11/23 05:28:28;;;;;;;9.50;6.05;;;1.20;99.90;;;;;;493996;241;27548;-71
2023/11/23 05:30:29;;;;;;;7.28;5.65;;;1.20;99.90;;;;;;493829;241;27566;-72
2023/11/23 05:32:31;;;;;;;7.00;5.10;;;1.20;99.90;;;;;;493955;241;27605;-71
2023/11/23 05:34:32;;;;;;;7.43;6.35;;;1.20;99.90;;;;;;494090;241;27528;-72
2023/11/23 05:36:33;;;;;;;14.13;7.60;;;1.20;99.90;;;;;;494038;241;27485;-72
2023/11/23 05:38:34;;;;;;;8.75;6.28;;;1.20;99.90;;;;;;493977;241;27506;-72
2023/11/23 05:40:36;;;;;;;10.52;6.55;;;1.20;99.90;;;;;;493996;241;27926;-72
2023/11/23 05:42:37;;;;;;;8.93;6.28;;;1.20;99.90;;;;;;494010;241;27532;-72
2023/11/23 05:44:39;;;;;;;10.50;6.53;;;1.20;99.90;;;;;;493974;239;27578;-73
2023/11/23 05:46:39;;;;;;;10.45;7.25;;;1.20;99.90;;;;;;493822;241;27523;-72
2023/11/23 05:48:41;;;;;;;10.68;7.72;;;1.20;99.90;;;;;;493983;241;27514;-72
2023/11/23 05:50:42;;;;;;;9.93;7.07;;;1.30;99.90;;;;;;493999;241;27516;-72
2023/11/23 05:52:43;;;;;;;11.23;6.80;;;1.20;99.90;;;;;;494076;241;27478;-72
2023/11/23 05:54:44;;;;;;;11.43;7.00;;;1.20;99.90;;;;;;494048;241;27506;-73
2023/11/23 05:56:46;;;;;;;8.50;6.30;;;1.20;99.90;;;;;;494082;241;27560;-72
2023/11/23 05:58:47;;;;;;;8.40;6.25;;;1.30;99.90;;;;;;494059;237;27932;-72
2023/11/23 06:00:48;;;;;;;11.48;7.87;;;1.30;99.90;;;;;;494021;241;28073;-73
2023/11/23 06:02:49;;;;;;;10.20;7.43;;;1.30;99.90;;;;;;493979;241;27956;-72
2023/11/23 06:04:51;;;;;;;18.67;8.32;;;1.30;99.90;;;;;;494008;241;28008;-72
2023/11/23 06:06:52;;;;;;;11.70;7.65;;;1.30;99.90;;;;;;493980;241;27458;-72
2023/11/23 06:08:53;;;;;;;10.90;7.18;;;1.30;99.90;;;;;;494101;241;27482;-72
2023/11/23 06:10:54;;;;;;;13.45;7.50;;;1.30;99.90;;;;;;494079;241;27649;-74
2023/11/23 06:12:56;;;;;;;13.57;8.25;;;1.30;99.90;;;;;;493986;241;27556;-72
2023/11/23 06:14:57;;;;;;;9.80;7.28;;;1.30;99.90;;;;;;493854;241;27587;-73
2023/11/23 06:16:58;;;;;;;10.02;7.28;;;1.30;99.90;;;;;;494066;241;27586;-72
2023/11/23 06:18:59;;;;;;;10.70;7.47;;;1.30;99.90;;;;;;493999;241;27464;-72
2023/11/23 06:21:01;;;;;;;9.85;6.87;;;1.40;99.90;;;;;;493989;241;27966;-72
2023/11/23 06:23:02;;;;;;;9.57;7.07;;;1.40;99.90;;;;;;494083;241;27918;-72
2023/11/23 06:25:03;;;;;;;16.62;10.07;;;1.40;99.90;;;;;;494063;241;28007;-73
2023/11/23 06:27:05;;;;;;;18.20;9.80;;;1.40;99.90;;;;;;494093;241;27553;-72
2023/11/23 06:29:06;;;;;;;15.55;8.98;;;1.50;99.90;;;;;;493965;241;27466;-72
2023/11/23 06:31:07;;;;;;;15.75;9.40;;;1.50;99.90;;;;;;494005;241;27601;-73
2023/11/23 06:33:08;;;;;;;11.88;8.20;;;1.50;99.90;;;;;;493994;241;27571;-74
2023/11/23 06:35:10;;;;;;;13.52;9.20;;;1.50;99.90;;;;;;494072;241;27502;-72
2023/11/23 06:37:11;;;;;;;16.65;9.40;;;1.60;99.90;;;;;;494050;241;27520;-72
2023/11/23 06:39:12;;;;;;;17.37;10.27;;;1.60;99.90;;;;;;494098;241;27473;-72
2023/11/23 06:41:13;;;;;;;14.07;8.43;;;1.60;99.90;;;;;;494076;241;28104;-72
2023/11/23 06:43:15;;;;;;;21.58;10.55;;;1.60;99.90;;;;;;493977;241;28745;-72
2023/11/23 06:45:16;;;;;;;13.10;9.15;;;1.60;99.90;;;;;;493993;241;27672;-72
2023/11/23 06:47:17;;;;;;;14.30;9.43;;;1.60;99.90;;;;;;493980;241;27597;-73
2023/11/23 06:49:19;;;;;;;14.02;8.85;;;1.60;99.90;;;;;;493985;241;27493;-72
2023/11/23 06:51:20;;;;;;;17.30;9.65;;;1.60;99.90;;;;;;493943;241;27588;-72
2023/11/23 06:53:21;;;;;;;13.77;9.52;;;1.60;99.90;;;;;;493980;241;27509;-72
2023/11/23 06:55:22;;;;;;;12.00;8.40;;;1.60;99.90;;;;;;494009;241;27576;-72
2023/11/23 06:57:23;;;;;;;12.80;9.60;;;1.60;99.90;;;;;;494001;241;27504;-72
2023/11/23 06:59:25;;;;;;;13.68;8.82;;;1.60;99.90;;;;;;493995;241;27463;-72
2023/11/23 07:01:26;;;;;;;16.85;9.88;;;1.60;99.90;;;;;;494045;241;28050;-72
2023/11/23 07:03:27;;;;;;;13.45;9.02;;;1.50;99.90;;;;;;494104;241;28071;-72
2023/11/23 07:05:28;;;;;;;15.70;9.70;;;1.50;99.90;;;;;;494105;241;27462;-72
2023/11/23 07:07:32;;;;;;;14.70;9.52;;;1.60;99.90;;;;;;494008;241;27616;-72
2023/11/23 07:09:31;;;;;;;13.95;9.30;;;1.60;99.90;;;;;;493845;241;27547;-72
2023/11/23 07:11:32;;;;;;;16.12;10.68;;;1.60;99.90;;;;;;493923;241;27549;-72
2023/11/23 07:13:33;;;;;;;14.48;9.45;;;1.60;99.90;;;;;;494003;241;27545;-72
2023/11/23 07:15:35;;;;;;;12.20;9.13;;;1.60;99.90;;;;;;494119;241;27470;-72
2023/11/23 07:17:36;;;;;;;13.05;9.27;;;1.50;99.90;;;;;;494042;241;27615;-72
2023/11/23 07:19:37;;;;;;;18.45;10.40;;;1.60;99.90;;;;;;493988;241;28592;-72
2023/11/23 07:21:38;;;;;;;14.77;8.88;;;1.60;99.90;;;;;;494125;241;28018;-71
2023/11/23 07:23:40;;;;;;;13.02;8.07;;;1.60;99.90;;;;;;494095;241;28044;-72
2023/11/23 07:25:45;;;;;;;12.88;8.32;;;1.60;99.90;;;;;;494068;241;27512;-72
2023/11/23 07:27:42;;;;;;;17.75;9.70;;;1.60;99.90;;;;;;493706;241;27497;-72
2023/11/23 07:29:43;;;;;;;16.67;10.23;;;1.60;99.90;;;;;;493993;241;27615;-74
2023/11/23 07:31:46;;;;;;;15.73;10.88;;;1.60;99.90;;;;;;493982;241;27544;-72
2023/11/23 07:33:46;;;;;;;13.70;9.30;;;1.60;99.90;;;;;;493914;241;27520;-73
2023/11/23 07:35:48;;;;;;;13.95;8.45;;;1.60;99.90;;;;;;493964;241;27507;-72
2023/11/23 07:37:48;;;;;;;15.40;9.02;;;1.70;99.90;;;;;;493888;241;28051;-72
2023/11/23 07:39:50;;;;;;;17.20;10.80;;;1.70;99.90;;;;;;493998;241;28006;-73
2023/11/23 07:41:51;;;;;;;14.38;8.32;;;1.70;99.90;;;;;;493964;241;27912;-72
2023/11/23 07:43:52;;;;;;;13.80;8.90;;;1.80;99.90;;;;;;493984;241;27497;-72
2023/11/23 07:45:53;;;;;;;12.75;8.63;;;1.80;99.90;;;;;;494000;241;27488;-73
2023/11/23 07:47:55;;;;;;;18.30;10.23;;;1.80;99.90;;;;;;494070;241;27471;-73
2023/11/23 07:49:57;;;;;;;15.90;9.45;;;1.90;99.90;;;;;;494103;241;27551;-72
2023/11/23 07:51:57;;;;;;;13.70;9.07;;;1.90;99.90;;;;;;493867;241;27499;-72
2023/11/23 07:53:59;;;;;;;14.93;9.63;;;1.90;99.90;;;;;;493952;241;27519;-72
2023/11/23 07:56:00;;;;;;;19.25;10.07;;;1.90;99.90;;;;;;494024;238;28134;-74
2023/11/23 07:58:01;;;;;;;14.40;9.13;;;1.90;99.90;;;;;;494067;241;27901;-72
2023/11/23 08:00:04;;;;;;;15.75;9.90;;;2.00;99.90;;;;;;494108;241;27973;-72
2023/11/23 08:02:04;;;;;;;14.77;9.13;;;2.00;99.90;;;;;;493870;241;27454;-72
2023/11/23 08:04:05;;;;;;;15.93;9.13;;;2.10;99.90;;;;;;493982;241;27502;-73
2023/11/23 08:06:06;;;;;;;12.52;8.15;;;2.10;99.90;;;;;;493955;241;27512;-74
2023/11/23 08:08:07;;;;;;;13.25;8.65;;;2.10;99.90;;;;;;493979;241;27502;-72
2023/11/23 08:10:09;;;;;;;13.48;9.23;;;2.20;99.90;;;;;;493982;241;27464;-73
2023/11/23 08:12:10;;;;;;;12.18;8.40;;;2.10;99.90;;;;;;494067;241;27466;-72
2023/11/23 08:14:13;;;;;;;13.05;8.85;;;2.20;99.90;;;;;;494043;241;27456;-73
2023/11/23 08:16:12;;;;;;;15.20;8.50;;;2.20;99.90;;;;;;493885;241;27974;-73
2023/11/23 08:18:13;;;;;;;11.75;7.90;;;2.20;99.90;;;;;;494053;241;27924;-73
2023/11/23 08:20:15;;;;;;;11.05;8.20;;;2.20;99.90;;;;;;494023;241;28002;-73
2023/11/23 08:22:19;;;;;;;14.43;8.48;;;2.20;99.90;;;;;;494065;241;27498;-72
2023/11/23 08:24:17;;;;;;;17.37;9.18;;;2.30;99.90;;;;;;493830;241;27505;-73
2023/11/23 08:26:19;;;;;;;12.93;8.05;;;2.30;99.90;;;;;;494100;241;27633;-73
2023/11/23 08:28:20;;;;;;;13.93;8.90;;;2.30;99.90;;;;;;494096;237;27511;-73
2023/11/23 08:30:22;;;;;;;16.87;8.93;;;2.30;99.90;;;;;;493987;241;27620;-73
2023/11/23 08:32:22;;;;;;;14.02;8.50;;;2.30;99.90;;;;;;493982;241;27964;-74
2023/11/23 08:34:23;;;;;;;15.98;8.80;;;2.30;99.90;;;;;;494073;241;27553;-73
2023/11/23 08:36:25;;;;;;;25.02;9.45;;;2.30;99.90;;;;;;494080;241;28019;-74
2023/11/23 08:38:28;;;;;;;12.00;7.78;;;2.30;99.90;;;;;;494031;241;29007;-73
2023/11/23 08:40:27;;;;;;;9.10;6.93;;;2.40;99.90;;;;;;493932;241;27505;-73
2023/11/23 08:42:29;;;;;;;14.85;9.70;;;2.40;99.90;;;;;;494060;241;27471;-74
2023/11/23 08:44:30;;;;;;;15.05;7.97;;;2.40;99.90;;;;;;494102;241;27503;-73
2023/11/23 08:46:33;;;;;;;11.05;7.50;;;2.40;99.90;;;;;;494071;241;27628;-72
2023/11/23 08:48:32;;;;;;;13.43;8.15;;;2.40;99.90;;;;;;493834;241;27467;-73
2023/11/23 08:50:34;;;;;;;11.65;7.82;;;2.40;99.90;;;;;;494018;241;27548;-77
2023/11/23 08:52:37;;;;;;;16.80;9.40;;;2.40;99.90;;;;;;493997;241;27604;-73
2023/11/23 08:54:37;;;;;;;13.35;8.85;;;2.40;99.90;;;;;;493807;241;27457;-72
2023/11/23 08:56:37;;;;;;;13.35;8.15;;;2.40;99.90;;;;;;493974;237;28057;-74
2023/11/23 08:58:39;;;;;;;15.43;8.32;;;2.40;99.90;;;;;;494095;241;28064;-74
2023/11/23 09:00:40;;;;;;;13.07;8.25;;;2.40;99.90;;;;;;494073;241;29010;-73
2023/11/23 09:02:43;;;;;;;15.82;8.40;;;2.40;99.90;;;;;;494009;241;27509;-73
2023/11/23 09:04:42;;;;;;;20.42;9.52;;;2.50;99.90;;;;;;493901;241;27441;-73
2023/11/23 09:06:44;;;;;;;12.70;9.05;;;2.40;99.90;;;;;;494081;241;27505;-72
2023/11/23 09:08:45;;;;;;;14.38;8.82;;;2.40;99.90;;;;;;494096;241;27518;-74
2023/11/23 09:10:48;;;;;;;11.63;8.25;;;2.50;99.90;;;;;;494006;237;27573;-73
2023/11/23 09:12:47;;;;;;;15.80;8.40;;;2.50;99.90;;;;;;493929;241;27513;-73
2023/11/23 09:14:49;;;;;;;13.98;9.52;;;2.50;99.90;;;;;;494090;241;27469;-72
2023/11/23 09:16:50;;;;;;;17.12;8.63;;;2.50;99.90;;;;;;494046;241;27958;-72
2023/11/23 09:18:51;;;;;;;21.58;10.13;;;2.50;99.90;;;;;;494019;241;27976;-74
2023/11/23 09:20:53;;;;;;;14.68;8.88;;;2.50;99.90;;;;;;494057;241;27466;-72
2023/11/23 09:22:54;;;;;;;11.48;6.80;;;2.50;99.90;;;;;;493983;241;27510;-72
2023/11/23 09:24:55;;;;;;;16.05;9.05;;;2.60;99.90;;;;;;493993;241;27556;-72
2023/11/23 09:26:56;;;;;;;12.50;7.85;;;2.60;99.90;;;;;;493998;241;27550;-72
2023/11/23 09:28:58;;;;;;;12.35;8.00;;;2.50;99.90;;;;;;494006;241;27609;-74
2023/11/23 09:30:59;;;;;;;11.25;8.40;;;2.60;99.90;;;;;;494061;237;27474;-73
2023/11/23 09:33:00;;;;;;;12.60;8.30;;;2.50;99.90;;;;;;494038;241;27541;-73
2023/11/23 09:35:02;;;;;;;14.75;8.52;;;2.50;99.90;;;;;;494011;241;27616;-74
2023/11/23 09:37:02;;;;;;;18.25;9.02;;;2.50;99.90;;;;;;494015;241;27937;-73
2023/11/23 09:39:04;;;;;;;11.68;6.75;;;2.50;99.90;;;;;;493983;241;29105;-72
2023/11/23 09:41:06;;;;;;;12.37;7.72;;;2.50;99.90;;;;;;493965;241;27471;-73
2023/11/23 09:43:07;;;;;;;14.20;10.18;;;2.60;99.90;;;;;;493862;241;27479;-74
2023/11/23 09:45:07;;;;;;;11.75;8.15;;;2.60;99.90;;;;;;493937;241;27524;-73
2023/11/23 09:47:09;;;;;;;19.42;9.52;;;2.50;99.90;;;;;;494008;241;27465;-72
2023/11/23 09:49:11;;;;;;;17.33;9.98;;;2.50;99.90;;;;;;493999;241;27524;-73
2023/11/23 09:51:11;;;;;;;14.30;8.82;;;2.50;99.90;;;;;;493979;241;27499;-72
2023/11/23 09:53:13;;;;;;;17.42;9.40;;;2.60;99.90;;;;;;494019;241;27484;-73
2023/11/23 09:55:17;;;;;;;15.43;9.10;;;2.50;99.90;;;;;;494046;241;28005;-73
2023/11/23 09:57:15;;;;;;;14.57;9.60;;;2.50;99.90;;;;;;493896;241;27907;-75
2023/11/23 09:59:16;;;;;;;21.60;10.38;;;2.60;99.90;;;;;;494008;241;29066;-72
2023/11/23 10:01:17;;;;;;;14.68;8.60;;;2.60;99.90;;;;;;494054;241;27602;-73
2023/11/23 10:03:19;;;;;;;14.65;8.77;;;2.60;99.90;;;;;;494039;241;27469;-73
2023/11/23 10:05:20;;;;;;;13.88;8.70;;;2.60;99.90;;;;;;494031;241;27521;-75
2023/11/23 10:07:22;;;;;;;12.93;8.57;;;2.60;99.90;;;;;;494010;241;27463;-72
2023/11/23 10:09:26;;;;;;;14.68;9.82;;;2.60;99.90;;;;;;494006;241;27595;-72
2023/11/23 10:11:26;;;;;;;16.95;10.65;;;2.70;99.90;;;;;;493715;241;27491;-73
2023/11/23 10:13:25;;;;;;;17.98;9.77;;;2.70;99.90;;;;;;493946;241;27929;-73
2023/11/23 10:15:27;;;;;;;17.08;9.93;;;2.70;99.90;;;;;;494003;241;28061;-73
2023/11/23 10:17:27;;;;;;;18.20;11.07;;;2.70;99.90;;;;;;494088;241;27976;-73
2023/11/23 10:19:29;;;;;;;20.70;11.18;;;2.80;99.90;;;;;;494096;241;27470;-72
2023/11/23 10:21:30;;;;;;;12.40;8.82;;;2.70;99.90;;;;;;493977;241;27531;-74
2023/11/23 10:23:31;;;;;;;17.10;10.65;;;2.70;99.90;;;;;;493988;241;27450;-73
2023/11/23 10:25:33;;;;;;;17.35;10.38;;;2.80;99.90;;;;;;493845;241;27508;-73
2023/11/23 10:27:34;;;;;;;22.52;11.07;;;2.80;99.90;;;;;;494082;241;27509;-74
2023/11/23 10:29:35;;;;;;;18.52;11.80;;;2.80;99.90;;;;;;494063;241;27473;-73
2023/11/23 10:31:36;;;;;;;16.98;11.80;;;2.90;99.90;;;;;;494064;241;27961;-73